METAR Data
IDs: Format: Raw Decoded Include TAF

Data at: 0424 UTC 26 Sep 2018

KBGM 260353Z AUTO 22007KT 10SM OVC005 18/18 A3008 RMK AO2 SLP184 T01830178
KBGM 260253Z 17006KT 10SM OVC005 18/17 A3008 RMK AO2 SLP182 T01780172 58009
KBGM 260153Z 19007KT 10SM OVC006 17/17 A3010 RMK AO2 CIG 004V011 SLP192 T01720167
KBGM 260053Z 17006KT 10SM OVC006 17/17 A3009 RMK AO2 CIG 004V009 SLP187 T01720167
KBGM 252353Z 18005KT 10SM OVC005 17/17 A3011 RMK AO2 CIG 003V008 SLP194 T01670167 10167 20144 58009
KBGM 252253Z 18004KT 10SM OVC006 17/16 A3013 RMK AO2 SLP202 T01670161
KBGM 252153Z 16005KT 10SM OVC007 17/16 A3013 RMK AO2 SLP204 T01670161
KBGM 252053Z 19005KT 10SM OVC008 17/16 A3013 RMK AO2 SLP204 T01670156 58017
KBGM 251953Z 16005KT 10SM OVC007 16/15 A3016 RMK AO2 CIG 004V009 SLP212 T01610150
KBGM 251930Z 16005KT 10SM OVC005 16/15 A3016 RMK AO2 CIG 003V009 T01560150
KBGM 251853Z 16004KT 10SM OVC004 15/14 A3017 RMK AO2 SLP219 T01500144
KBGM 251837Z 16005KT 10SM OVC004 14/14 A3018 RMK AO2 CIG 003V009 T01440144
KBGM 251753Z 15012KT 10SM OVC009 14/14 A3019 RMK AO2 RAB1658E40 CIG 006V014 SLP223 P0001 60022 T01440139 10144 20100 56026
KBGM 251653Z 15011KT 10SM OVC009 13/13 A3021 RMK AO2 RAE1558B42E45 SLP233 P0000 T01330128
KBGM 251553Z 15014G21KT 10SM -RA OVC006 12/12 A3024 RMK AO2 CIG 003V008 SLP242 P0001 T01220117
KBGM 251513Z 14014KT 10SM -RA OVC006 12/11 A3025 RMK AO2 CIG 003V010 P0001 T01170111
KBGM 251453Z 15010KT 10SM -RA OVC004 12/11 A3027 RMK AO2 CIG 002V008 SLP252 P0006 60020 T01170111 58013
KBGM 251353Z 15013KT 7SM -RA BKN004 OVC040 11/11 A3029 RMK AO2 SLP259 P0002 T01110106
KBGM 251310Z 18007G22KT 5SM -RA BR BKN004 BKN017 OVC045 11/11 A3030 RMK AO2 P0001 T01060106
KBGM 251305Z 14014G22KT 2SM -RA BR SCT002 BKN016 OVC045 10/10 A3029 RMK AO2 VIS 1V5 P0001 T01000100
KBGM 251259Z 14012KT 1 3/4SM -RA BR BKN003 BKN016 OVC034 10/10 A3030 RMK AO2 VIS 1V4 P0001 T01000100
KBGM 251253Z 14010KT 4SM -RA BR BKN003 OVC018 10/10 A3030 RMK AO2 SLP264 P0012 T01000100
KBGM 251224Z 16006KT 3SM -RA BR BKN004 OVC009 10/10 A3031 RMK AO2 P0007 T01000100
KBGM 251217Z 15009KT 2SM RA BR SCT005 BKN009 OVC014 10/09 A3031 RMK AO2 P0005 T01000094
KBGM 251153Z 15010KT 4SM RA BR OVC006 10/09 A3031 RMK AO2 SLP266 P0015 60096 70097 T01000094 10106 20094 56002
KBGM 251053Z 15012KT 5SM RA BR BKN006 OVC010 09/09 A3032 RMK AO2 SLP269 P0017 T00940089
KBGM 250954Z 13016G21KT 4SM +RA BR OVC007 09/09 A3030 RMK AO2 P0000 T00940089
KBGM 250953Z AUTO 14015G21KT 4SM +RA BR OVC007 09/09 A3030 RMK AO2 SLP263 P0021 T00940089
KBGM 250853Z AUTO 13015G21KT 8SM -RA OVC007 10/09 A3031 RMK AO2 PK WND 12026/0815 SLP268 P0016 60043 T01000094 56023
KBGM 250753Z AUTO 13016G20KT 4SM RA BR BKN007 OVC012 10/09 A3033 RMK AO2 SLP271 P0016 T01000094
KBGM 250739Z AUTO 14013KT 5SM RA BR BKN006 OVC012 10/09 A3034 RMK AO2 P0013 T01000094
KBGM 250730Z AUTO 14014G19KT 5SM RA BR SCT006 BKN010 OVC044 10/09 A3035 RMK AO2 P0010 T01000094
KBGM 250718Z AUTO 14010KT 5SM RA BR BKN008 BKN044 OVC055 10/09 A3035 RMK AO2 P0007 T01000094
KBGM 250706Z AUTO 14014KT 4SM RA BR SCT006 BKN050 OVC060 10/09 A3035 RMK AO2 P0004 T01000094
KBGM 250653Z AUTO 14012KT 4SM RA BR BKN006 BKN017 OVC055 10/09 A3037 RMK AO2 SLP283 P0011 T01000094
KBGM 250620Z AUTO 14011KT 6SM -RA BR BKN009 OVC014 10/09 A3038 RMK AO2 CIG 005V013 P0004 T01000094
KBGM 250553Z AUTO 15015KT 6SM -RA BR OVC014 11/09 A3039 RMK AO2 RAB23 SLP290 P0001 60001 T01060094 10128 20106 56008
KBGM 250525Z AUTO 15013G19KT 10SM -RA OVC014 12/09 A3039 RMK AO2 RAB23 P0000 T01170089
KBGM 250453Z AUTO 16013G19KT 10SM OVC015 12/09 A3040 RMK AO2 SLP293 T01170089 401780061
KBGM 250353Z 14018G25KT 10SM OVC015 12/09 A3040 RMK AO2 SLP294 T01170089
KBGM 250331Z 14020G24KT 10SM OVC016 12/09 A3040 RMK AO2 T01220089
KBGM 250318Z 15014G22KT 10SM OVC014 12/09 A3041 RMK AO2 T01220094
KBGM 250253Z 15017G23KT 10SM OVC015 12/09 A3041 RMK AO2 PK WND 15026/0222 SLP301 T01220094 50002
KBGM 250153Z 15011KT 10SM OVC018 13/10 A3042 RMK AO2 SLP304 T01280100
KBGM 250053Z 14011KT 10SM SCT017 BKN024 12/10 A3041 RMK AO2 SLP303 T01220100
KBGM 250050Z 14012KT 10SM SCT017 BKN024 12/10 A3041 RMK AO2
KBGM 242353Z 15011KT 10SM CLR 13/10 A3040 RMK AO2 SLP299 T01280100 10178 20122 58006
KBGM 242253Z 14009G17KT 10SM CLR 13/09 A3040 RMK AO2 SLP302 T01330094
KBGM 242153Z 12009KT 10SM CLR 13/09 A3042 RMK AO2 SLP305 T01330089
KBGM 242053Z 13010KT 10SM CLR 14/08 A3042 RMK AO2 SLP304 T01390083 56003
KBGM 241953Z 14013KT 10SM CLR 15/08 A3042 RMK AO2 SLP303 T01500083
KBGM 241937Z 14015G20KT 10SM CLR 16/09 A3041 RMK AO2 T01610089
KBGM 241853Z AUTO 13014KT 10SM CLR 17/08 A3041 RMK AO2 SLP301 T01670078
KBGM 241753Z 14015G19KT 10SM CLR 17/07 A3042 RMK AO2 SLP304 T01670072 10178 20072 56007
KBGM 241653Z 14015G22KT 10SM CLR 17/07 A3043 RMK AO2 SLP305 T01720072